sensor_id;sensor_type;location;lat;lon;timestamp;P1;durP1;ratioP1;P2;durP2;ratioP2
11141;SDS011;5625;50.122;19.864;2024-02-23T00:01:17;1.90;;;1.80;;
11141;SDS011;5625;50.122;19.864;2024-02-23T00:03:45;1.60;;;1.50;;
11141;SDS011;5625;50.122;19.864;2024-02-23T00:06:13;1.60;;;1.50;;
11141;SDS011;5625;50.122;19.864;2024-02-23T00:08:42;2.40;;;1.60;;
11141;SDS011;5625;50.122;19.864;2024-02-23T00:11:10;2.00;;;1.80;;
11141;SDS011;5625;50.122;19.864;2024-02-23T00:13:40;1.73;;;1.60;;
11141;SDS011;5625;50.122;19.864;2024-02-23T00:16:08;1.70;;;1.60;;
11141;SDS011;5625;50.122;19.864;2024-02-23T00:18:37;2.13;;;2.00;;
11141;SDS011;5625;50.122;19.864;2024-02-23T00:21:05;2.53;;;2.33;;
11141;SDS011;5625;50.122;19.864;2024-02-23T00:23:34;3.17;;;2.40;;
11141;SDS011;5625;50.122;19.864;2024-02-23T00:26:02;2.30;;;2.10;;
11141;SDS011;5625;50.122;19.864;2024-02-23T00:28:31;6.23;;;2.27;;
11141;SDS011;5625;50.122;19.864;2024-02-23T00:31:00;3.50;;;2.10;;
11141;SDS011;5625;50.122;19.864;2024-02-23T00:33:28;2.40;;;2.20;;
11141;SDS011;5625;50.122;19.864;2024-02-23T00:35:56;2.50;;;2.30;;
11141;SDS011;5625;50.122;19.864;2024-02-23T00:38:25;2.60;;;1.90;;
11141;SDS011;5625;50.122;19.864;2024-02-23T00:40:53;2.13;;;1.90;;
11141;SDS011;5625;50.122;19.864;2024-02-23T00:43:21;2.23;;;2.10;;
11141;SDS011;5625;50.122;19.864;2024-02-23T00:45:50;2.03;;;1.93;;
11141;SDS011;5625;50.122;19.864;2024-02-23T00:48:20;1.87;;;1.77;;
11141;SDS011;5625;50.122;19.864;2024-02-23T00:50:49;2.30;;;2.10;;
11141;SDS011;5625;50.122;19.864;2024-02-23T00:53:17;2.03;;;1.93;;
11141;SDS011;5625;50.122;19.864;2024-02-23T00:55:47;1.80;;;1.70;;
11141;SDS011;5625;50.122;19.864;2024-02-23T00:58:16;1.77;;;1.67;;
11141;SDS011;5625;50.122;19.864;2024-02-23T01:00:44;1.60;;;1.50;;
11141;SDS011;5625;50.122;19.864;2024-02-23T01:03:12;1.97;;;1.77;;
11141;SDS011;5625;50.122;19.864;2024-02-23T01:05:41;2.70;;;2.17;;
11141;SDS011;5625;50.122;19.864;2024-02-23T01:08:10;1.87;;;1.77;;
11141;SDS011;5625;50.122;19.864;2024-02-23T01:10:38;2.20;;;2.00;;
11141;SDS011;5625;50.122;19.864;2024-02-23T01:13:06;2.37;;;2.17;;
11141;SDS011;5625;50.122;19.864;2024-02-23T01:15:34;2.40;;;2.20;;
11141;SDS011;5625;50.122;19.864;2024-02-23T01:18:03;2.53;;;2.00;;
11141;SDS011;5625;50.122;19.864;2024-02-23T01:20:32;1.90;;;1.73;;
11141;SDS011;5625;50.122;19.864;2024-02-23T01:23:02;2.23;;;1.73;;
11141;SDS011;5625;50.122;19.864;2024-02-23T01:25:30;1.93;;;1.83;;
11141;SDS011;5625;50.122;19.864;2024-02-23T01:28:01;1.77;;;1.67;;
11141;SDS011;5625;50.122;19.864;2024-02-23T01:30:29;1.60;;;1.50;;
11141;SDS011;5625;50.122;19.864;2024-02-23T01:32:57;4.10;;;1.90;;
11141;SDS011;5625;50.122;19.864;2024-02-23T01:35:27;1.70;;;1.60;;
11141;SDS011;5625;50.122;19.864;2024-02-23T01:37:56;2.40;;;2.20;;
11141;SDS011;5625;50.122;19.864;2024-02-23T01:40:26;2.23;;;2.10;;
11141;SDS011;5625;50.122;19.864;2024-02-23T01:43:00;2.20;;;2.00;;
11141;SDS011;5625;50.122;19.864;2024-02-23T01:45:31;1.73;;;1.63;;
11141;SDS011;5625;50.122;19.864;2024-02-23T01:48:00;2.10;;;1.90;;
11141;SDS011;5625;50.122;19.864;2024-02-23T01:50:29;2.10;;;1.90;;
11141;SDS011;5625;50.122;19.864;2024-02-23T01:53:00;2.03;;;1.70;;
11141;SDS011;5625;50.122;19.864;2024-02-23T01:55:31;2.30;;;2.03;;
11141;SDS011;5625;50.122;19.864;2024-02-23T01:58:02;2.50;;;2.10;;
11141;SDS011;5625;50.122;19.864;2024-02-23T02:00:34;2.33;;;1.83;;
11141;SDS011;5625;50.122;19.864;2024-02-23T02:03:04;1.90;;;1.80;;
11141;SDS011;5625;50.122;19.864;2024-02-23T02:05:36;2.00;;;1.90;;
11141;SDS011;5625;50.122;19.864;2024-02-23T02:08:05;2.17;;;2.00;;
11141;SDS011;5625;50.122;19.864;2024-02-23T02:10:35;2.53;;;2.20;;
11141;SDS011;5625;50.122;19.864;2024-02-23T02:13:04;2.87;;;2.10;;
11141;SDS011;5625;50.122;19.864;2024-02-23T02:15:32;2.80;;;2.20;;
11141;SDS011;5625;50.122;19.864;2024-02-23T02:18:00;2.30;;;2.20;;
11141;SDS011;5625;50.122;19.864;2024-02-23T02:20:28;2.57;;;2.37;;
11141;SDS011;5625;50.122;19.864;2024-02-23T02:23:01;2.70;;;2.50;;
11141;SDS011;5625;50.122;19.864;2024-02-23T02:25:29;2.23;;;2.13;;
11141;SDS011;5625;50.122;19.864;2024-02-23T02:27:59;2.20;;;2.10;;
11141;SDS011;5625;50.122;19.864;2024-02-23T02:30:27;2.13;;;1.93;;
11141;SDS011;5625;50.122;19.864;2024-02-23T02:32:55;2.67;;;2.47;;
11141;SDS011;5625;50.122;19.864;2024-02-23T02:35:23;2.50;;;2.40;;
11141;SDS011;5625;50.122;19.864;2024-02-23T02:37:51;3.13;;;2.50;;
11141;SDS011;5625;50.122;19.864;2024-02-23T02:40:20;2.00;;;1.80;;
11141;SDS011;5625;50.122;19.864;2024-02-23T02:42:48;2.30;;;2.10;;
11141;SDS011;5625;50.122;19.864;2024-02-23T02:45:17;2.30;;;2.10;;
11141;SDS011;5625;50.122;19.864;2024-02-23T02:47:46;2.60;;;2.40;;
11141;SDS011;5625;50.122;19.864;2024-02-23T02:50:14;2.53;;;2.13;;
11141;SDS011;5625;50.122;19.864;2024-02-23T02:52:43;4.03;;;2.30;;
11141;SDS011;5625;50.122;19.864;2024-02-23T02:55:11;2.30;;;2.20;;
11141;SDS011;5625;50.122;19.864;2024-02-23T02:57:39;2.70;;;2.43;;
11141;SDS011;5625;50.122;19.864;2024-02-23T03:00:09;3.23;;;2.70;;
11141;SDS011;5625;50.122;19.864;2024-02-23T03:02:39;3.30;;;2.70;;
11141;SDS011;5625;50.122;19.864;2024-02-23T03:05:08;3.40;;;3.10;;
11141;SDS011;5625;50.122;19.864;2024-02-23T03:07:36;3.50;;;3.03;;
11141;SDS011;5625;50.122;19.864;2024-02-23T03:10:04;3.33;;;2.60;;
11141;SDS011;5625;50.122;19.864;2024-02-23T03:12:33;2.63;;;2.43;;
11141;SDS011;5625;50.122;19.864;2024-02-23T03:15:04;2.70;;;2.50;;
11141;SDS011;5625;50.122;19.864;2024-02-23T03:17:33;2.53;;;2.33;;
11141;SDS011;5625;50.122;19.864;2024-02-23T03:20:03;2.00;;;1.90;;
11141;SDS011;5625;50.122;19.864;2024-02-23T03:22:35;2.30;;;2.03;;
11141;SDS011;5625;50.122;19.864;2024-02-23T03:25:03;2.50;;;2.30;;
11141;SDS011;5625;50.122;19.864;2024-02-23T03:27:34;2.77;;;2.40;;
11141;SDS011;5625;50.122;19.864;2024-02-23T03:30:04;2.77;;;2.50;;
11141;SDS011;5625;50.122;19.864;2024-02-23T03:32:34;3.60;;;2.80;;
11141;SDS011;5625;50.122;19.864;2024-02-23T03:35:06;2.87;;;2.57;;
11141;SDS011;5625;50.122;19.864;2024-02-23T03:37:35;3.03;;;2.40;;
11141;SDS011;5625;50.122;19.864;2024-02-23T03:40:04;2.50;;;2.30;;
11141;SDS011;5625;50.122;19.864;2024-02-23T03:42:34;3.30;;;2.30;;
11141;SDS011;5625;50.122;19.864;2024-02-23T03:45:03;2.50;;;2.30;;
11141;SDS011;5625;50.122;19.864;2024-02-23T03:47:32;2.70;;;2.50;;
11141;SDS011;5625;50.122;19.864;2024-02-23T03:50:01;3.10;;;2.80;;
11141;SDS011;5625;50.122;19.864;2024-02-23T03:52:31;2.77;;;2.50;;
11141;SDS011;5625;50.122;19.864;2024-02-23T03:54:59;2.83;;;2.50;;
11141;SDS011;5625;50.122;19.864;2024-02-23T03:57:27;3.13;;;2.70;;
11141;SDS011;5625;50.122;19.864;2024-02-23T03:59:56;4.00;;;2.43;;
11141;SDS011;5625;50.122;19.864;2024-02-23T04:02:24;2.83;;;2.33;;
11141;SDS011;5625;50.122;19.864;2024-02-23T04:04:53;2.53;;;2.33;;
11141;SDS011;5625;50.122;19.864;2024-02-23T04:07:21;3.30;;;2.80;;
11141;SDS011;5625;50.122;19.864;2024-02-23T04:09:51;2.50;;;2.30;;
11141;SDS011;5625;50.122;19.864;2024-02-23T04:12:21;3.00;;;2.30;;
11141;SDS011;5625;50.122;19.864;2024-02-23T04:14:49;2.73;;;2.53;;
11141;SDS011;5625;50.122;19.864;2024-02-23T04:17:18;2.70;;;2.50;;
11141;SDS011;5625;50.122;19.864;2024-02-23T04:19:46;3.27;;;2.70;;
11141;SDS011;5625;50.122;19.864;2024-02-23T04:22:14;5.23;;;2.63;;
11141;SDS011;5625;50.122;19.864;2024-02-23T04:24:42;2.70;;;2.50;;
11141;SDS011;5625;50.122;19.864;2024-02-23T04:27:12;2.83;;;2.50;;
11141;SDS011;5625;50.122;19.864;2024-02-23T04:29:40;2.53;;;2.30;;
11141;SDS011;5625;50.122;19.864;2024-02-23T04:32:08;2.70;;;2.50;;
11141;SDS011;5625;50.122;19.864;2024-02-23T04:34:37;2.63;;;2.33;;
11141;SDS011;5625;50.122;19.864;2024-02-23T04:37:05;2.53;;;2.33;;
11141;SDS011;5625;50.122;19.864;2024-02-23T04:39:34;2.97;;;2.50;;
11141;SDS011;5625;50.122;19.864;2024-02-23T04:42:04;2.70;;;2.50;;
11141;SDS011;5625;50.122;19.864;2024-02-23T04:44:36;3.00;;;2.33;;
11141;SDS011;5625;50.122;19.864;2024-02-23T04:47:04;2.97;;;2.60;;
11141;SDS011;5625;50.122;19.864;2024-02-23T04:49:33;3.00;;;2.70;;
11141;SDS011;5625;50.122;19.864;2024-02-23T04:52:01;3.83;;;2.40;;
11141;SDS011;5625;50.122;19.864;2024-02-23T04:54:29;3.03;;;2.70;;
11141;SDS011;5625;50.122;19.864;2024-02-23T04:56:58;3.77;;;2.60;;
11141;SDS011;5625;50.122;19.864;2024-02-23T04:59:26;3.13;;;2.30;;
11141;SDS011;5625;50.122;19.864;2024-02-23T05:01:56;2.63;;;2.43;;
11141;SDS011;5625;50.122;19.864;2024-02-23T05:04:24;2.50;;;2.20;;
11141;SDS011;5625;50.122;19.864;2024-02-23T05:06:53;2.90;;;2.70;;
11141;SDS011;5625;50.122;19.864;2024-02-23T05:09:21;3.20;;;2.90;;
11141;SDS011;5625;50.122;19.864;2024-02-23T05:11:49;3.70;;;2.70;;
11141;SDS011;5625;50.122;19.864;2024-02-23T05:14:18;3.97;;;2.70;;
11141;SDS011;5625;50.122;19.864;2024-02-23T05:16:46;2.80;;;2.60;;
11141;SDS011;5625;50.122;19.864;2024-02-23T05:19:15;3.10;;;2.80;;
11141;SDS011;5625;50.122;19.864;2024-02-23T05:21:44;2.80;;;2.60;;
11141;SDS011;5625;50.122;19.864;2024-02-23T05:24:18;3.97;;;3.20;;
11141;SDS011;5625;50.122;19.864;2024-02-23T05:26:49;3.73;;;3.43;;
11141;SDS011;5625;50.122;19.864;2024-02-23T05:29:36;4.57;;;3.57;;
11141;SDS011;5625;50.122;19.864;2024-02-23T05:32:05;4.80;;;4.30;;
11141;SDS011;5625;50.122;19.864;2024-02-23T05:34:38;4.23;;;3.83;;
11141;SDS011;5625;50.122;19.864;2024-02-23T05:37:07;4.80;;;4.40;;
11141;SDS011;5625;50.122;19.864;2024-02-23T05:39:35;4.73;;;4.30;;
11141;SDS011;5625;50.122;19.864;2024-02-23T05:42:04;5.07;;;4.57;;
11141;SDS011;5625;50.122;19.864;2024-02-23T05:44:33;4.80;;;4.33;;
11141;SDS011;5625;50.122;19.864;2024-02-23T05:47:01;4.50;;;4.20;;
11141;SDS011;5625;50.122;19.864;2024-02-23T05:49:29;4.47;;;4.07;;
11141;SDS011;5625;50.122;19.864;2024-02-23T05:51:59;5.37;;;4.30;;
11141;SDS011;5625;50.122;19.864;2024-02-23T05:54:27;5.13;;;4.70;;
11141;SDS011;5625;50.122;19.864;2024-02-23T05:56:56;5.53;;;4.57;;
11141;SDS011;5625;50.122;19.864;2024-02-23T05:59:24;5.57;;;4.97;;
11141;SDS011;5625;50.122;19.864;2024-02-23T06:01:53;5.30;;;4.80;;
11141;SDS011;5625;50.122;19.864;2024-02-23T06:04:23;5.57;;;5.07;;
11141;SDS011;5625;50.122;19.864;2024-02-23T06:06:51;5.20;;;4.70;;
11141;SDS011;5625;50.122;19.864;2024-02-23T06:09:21;6.87;;;4.77;;
11141;SDS011;5625;50.122;19.864;2024-02-23T06:11:49;6.23;;;5.20;;
11141;SDS011;5625;50.122;19.864;2024-02-23T06:14:18;7.97;;;5.83;;
11141;SDS011;5625;50.122;19.864;2024-02-23T06:16:46;6.97;;;5.30;;
11141;SDS011;5625;50.122;19.864;2024-02-23T06:19:15;6.40;;;5.53;;
11141;SDS011;5625;50.122;19.864;2024-02-23T06:21:46;5.23;;;4.73;;
11141;SDS011;5625;50.122;19.864;2024-02-23T06:24:15;6.53;;;5.30;;
11141;SDS011;5625;50.122;19.864;2024-02-23T06:26:45;7.07;;;5.37;;
11141;SDS011;5625;50.122;19.864;2024-02-23T06:29:15;5.43;;;4.93;;
11141;SDS011;5625;50.122;19.864;2024-02-23T06:31:43;5.57;;;4.97;;
11141;SDS011;5625;50.122;19.864;2024-02-23T06:34:15;5.60;;;5.00;;
11141;SDS011;5625;50.122;19.864;2024-02-23T06:36:44;5.50;;;4.90;;
11141;SDS011;5625;50.122;19.864;2024-02-23T06:39:12;6.33;;;4.97;;
11141;SDS011;5625;50.122;19.864;2024-02-23T06:41:45;7.07;;;5.40;;
11141;SDS011;5625;50.122;19.864;2024-02-23T06:44:14;6.00;;;5.40;;
11141;SDS011;5625;50.122;19.864;2024-02-23T06:46:43;5.57;;;4.93;;
11141;SDS011;5625;50.122;19.864;2024-02-23T06:49:11;5.20;;;4.70;;
11141;SDS011;5625;50.122;19.864;2024-02-23T06:51:40;4.90;;;4.50;;
11141;SDS011;5625;50.122;19.864;2024-02-23T06:54:08;5.40;;;4.90;;
11141;SDS011;5625;50.122;19.864;2024-02-23T06:56:36;5.37;;;4.87;;
11141;SDS011;5625;50.122;19.864;2024-02-23T06:59:06;5.07;;;4.60;;
11141;SDS011;5625;50.122;19.864;2024-02-23T07:01:34;5.93;;;4.50;;
11141;SDS011;5625;50.122;19.864;2024-02-23T07:04:06;8.87;;;6.47;;
11141;SDS011;5625;50.122;19.864;2024-02-23T07:06:34;9.37;;;7.60;;
11141;SDS011;5625;50.122;19.864;2024-02-23T07:09:03;8.37;;;7.00;;
11141;SDS011;5625;50.122;19.864;2024-02-23T07:11:32;10.07;;;6.80;;
11141;SDS011;5625;50.122;19.864;2024-02-23T07:14:01;10.10;;;7.00;;
11141;SDS011;5625;50.122;19.864;2024-02-23T07:16:31;7.60;;;6.17;;
11141;SDS011;5625;50.122;19.864;2024-02-23T07:18:59;6.43;;;5.80;;
11141;SDS011;5625;50.122;19.864;2024-02-23T07:21:28;6.77;;;5.73;;
11141;SDS011;5625;50.122;19.864;2024-02-23T07:23:56;7.43;;;5.97;;
11141;SDS011;5625;50.122;19.864;2024-02-23T07:26:24;12.00;;;6.47;;
11141;SDS011;5625;50.122;19.864;2024-02-23T07:28:54;7.43;;;5.77;;
11141;SDS011;5625;50.122;19.864;2024-02-23T07:31:25;7.57;;;6.30;;
11141;SDS011;5625;50.122;19.864;2024-02-23T07:33:55;8.60;;;5.97;;
11141;SDS011;5625;50.122;19.864;2024-02-23T07:36:23;8.00;;;6.20;;
11141;SDS011;5625;50.122;19.864;2024-02-23T07:38:52;7.67;;;6.60;;
11141;SDS011;5625;50.122;19.864;2024-02-23T07:41:21;7.67;;;5.93;;
11141;SDS011;5625;50.122;19.864;2024-02-23T07:43:49;7.63;;;5.97;;
11141;SDS011;5625;50.122;19.864;2024-02-23T07:46:17;6.80;;;6.10;;
11141;SDS011;5625;50.122;19.864;2024-02-23T07:48:46;6.43;;;5.77;;
11141;SDS011;5625;50.122;19.864;2024-02-23T07:51:16;7.93;;;6.13;;
11141;SDS011;5625;50.122;19.864;2024-02-23T07:53:45;7.07;;;5.83;;
11141;SDS011;5625;50.122;19.864;2024-02-23T07:56:13;7.77;;;6.50;;
11141;SDS011;5625;50.122;19.864;2024-02-23T07:58:42;7.80;;;6.00;;
11141;SDS011;5625;50.122;19.864;2024-02-23T08:01:10;7.33;;;6.50;;
11141;SDS011;5625;50.122;19.864;2024-02-23T08:03:38;7.07;;;6.10;;
11141;SDS011;5625;50.122;19.864;2024-02-23T08:06:16;7.80;;;7.00;;
11141;SDS011;5625;50.122;19.864;2024-02-23T08:08:47;23.40;;;15.17;;
11141;SDS011;5625;50.122;19.864;2024-02-23T08:11:15;17.20;;;11.93;;
11141;SDS011;5625;50.122;19.864;2024-02-23T08:13:43;12.90;;;9.57;;
11141;SDS011;5625;50.122;19.864;2024-02-23T08:16:11;13.10;;;9.97;;
11141;SDS011;5625;50.122;19.864;2024-02-23T08:18:40;11.43;;;9.00;;
11141;SDS011;5625;50.122;19.864;2024-02-23T08:21:11;12.00;;;9.27;;
11141;SDS011;5625;50.122;19.864;2024-02-23T08:23:46;9.80;;;8.80;;
11141;SDS011;5625;50.122;19.864;2024-02-23T08:26:16;13.23;;;8.40;;
11141;SDS011;5625;50.122;19.864;2024-02-23T08:28:45;9.70;;;8.30;;
11141;SDS011;5625;50.122;19.864;2024-02-23T08:31:13;12.00;;;8.97;;
11141;SDS011;5625;50.122;19.864;2024-02-23T08:33:42;9.40;;;8.30;;
11141;SDS011;5625;50.122;19.864;2024-02-23T08:36:11;11.60;;;8.47;;
11141;SDS011;5625;50.122;19.864;2024-02-23T08:38:39;9.70;;;8.60;;
11141;SDS011;5625;50.122;19.864;2024-02-23T08:41:09;10.10;;;8.40;;
11141;SDS011;5625;50.122;19.864;2024-02-23T08:43:37;11.83;;;9.00;;
11141;SDS011;5625;50.122;19.864;2024-02-23T08:46:05;9.63;;;8.47;;
11141;SDS011;5625;50.122;19.864;2024-02-23T08:48:35;9.87;;;8.30;;
11141;SDS011;5625;50.122;19.864;2024-02-23T08:51:04;9.83;;;8.83;;
11141;SDS011;5625;50.122;19.864;2024-02-23T08:53:34;17.93;;;10.37;;
11141;SDS011;5625;50.122;19.864;2024-02-23T08:56:03;13.17;;;8.50;;
11141;SDS011;5625;50.122;19.864;2024-02-23T08:58:34;11.57;;;8.33;;
11141;SDS011;5625;50.122;19.864;2024-02-23T09:01:03;11.30;;;9.17;;
11141;SDS011;5625;50.122;19.864;2024-02-23T09:03:31;14.03;;;8.60;;
11141;SDS011;5625;50.122;19.864;2024-02-23T09:06:00;12.23;;;8.50;;
11141;SDS011;5625;50.122;19.864;2024-02-23T09:08:28;10.57;;;7.50;;
11141;SDS011;5625;50.122;19.864;2024-02-23T09:10:57;13.67;;;8.23;;
11141;SDS011;5625;50.122;19.864;2024-02-23T09:13:25;10.80;;;7.57;;
11141;SDS011;5625;50.122;19.864;2024-02-23T09:15:58;9.17;;;7.20;;
11141;SDS011;5625;50.122;19.864;2024-02-23T09:18:26;14.53;;;9.03;;
11141;SDS011;5625;50.122;19.864;2024-02-23T09:20:57;10.77;;;8.53;;
11141;SDS011;5625;50.122;19.864;2024-02-23T09:23:26;9.83;;;8.37;;
11141;SDS011;5625;50.122;19.864;2024-02-23T09:25:55;9.77;;;8.20;;
11141;SDS011;5625;50.122;19.864;2024-02-23T09:28:23;10.90;;;8.50;;
11141;SDS011;5625;50.122;19.864;2024-02-23T09:30:58;8.97;;;8.03;;
11141;SDS011;5625;50.122;19.864;2024-02-23T09:33:26;8.83;;;7.93;;
11141;SDS011;5625;50.122;19.864;2024-02-23T09:35:56;10.97;;;8.57;;
11141;SDS011;5625;50.122;19.864;2024-02-23T09:38:24;11.00;;;8.63;;
11141;SDS011;5625;50.122;19.864;2024-02-23T09:40:53;11.10;;;9.70;;
11141;SDS011;5625;50.122;19.864;2024-02-23T09:43:21;11.83;;;9.60;;
11141;SDS011;5625;50.122;19.864;2024-02-23T09:45:50;12.47;;;10.30;;
11141;SDS011;5625;50.122;19.864;2024-02-23T09:48:20;11.00;;;9.67;;
11141;SDS011;5625;50.122;19.864;2024-02-23T09:50:50;13.53;;;10.87;;
11141;SDS011;5625;50.122;19.864;2024-02-23T09:53:20;12.33;;;10.87;;
11141;SDS011;5625;50.122;19.864;2024-02-23T09:55:49;13.47;;;11.30;;
11141;SDS011;5625;50.122;19.864;2024-02-23T09:58:18;12.20;;;10.90;;
11141;SDS011;5625;50.122;19.864;2024-02-23T10:00:48;14.67;;;11.63;;
11141;SDS011;5625;50.122;19.864;2024-02-23T10:03:16;13.57;;;11.83;;
11141;SDS011;5625;50.122;19.864;2024-02-23T10:05:46;14.40;;;10.80;;
11141;SDS011;5625;50.122;19.864;2024-02-23T10:08:17;12.30;;;9.87;;
11141;SDS011;5625;50.122;19.864;2024-02-23T10:10:46;11.40;;;9.43;;
11141;SDS011;5625;50.122;19.864;2024-02-23T10:13:17;11.40;;;9.70;;
11141;SDS011;5625;50.122;19.864;2024-02-23T10:15:46;11.17;;;8.93;;
11141;SDS011;5625;50.122;19.864;2024-02-23T10:18:37;13.07;;;9.17;;
11141;SDS011;5625;50.122;19.864;2024-02-23T10:21:08;10.63;;;8.30;;
11141;SDS011;5625;50.122;19.864;2024-02-23T10:23:36;9.63;;;7.60;;
11141;SDS011;5625;50.122;19.864;2024-02-23T10:26:04;9.70;;;8.07;;
11141;SDS011;5625;50.122;19.864;2024-02-23T10:28:34;9.60;;;8.50;;
11141;SDS011;5625;50.122;19.864;2024-02-23T10:31:02;8.40;;;7.40;;
11141;SDS011;5625;50.122;19.864;2024-02-23T10:33:34;10.23;;;8.47;;
11141;SDS011;5625;50.122;19.864;2024-02-23T10:36:03;9.33;;;8.40;;
11141;SDS011;5625;50.122;19.864;2024-02-23T10:38:36;9.23;;;8.20;;
11141;SDS011;5625;50.122;19.864;2024-02-23T10:41:06;11.47;;;8.73;;
11141;SDS011;5625;50.122;19.864;2024-02-23T10:43:39;10.73;;;9.00;;
11141;SDS011;5625;50.122;19.864;2024-02-23T10:46:11;10.33;;;9.00;;
11141;SDS011;5625;50.122;19.864;2024-02-23T10:48:40;10.07;;;8.63;;
11141;SDS011;5625;50.122;19.864;2024-02-23T10:51:10;11.03;;;8.77;;
11141;SDS011;5625;50.122;19.864;2024-02-23T10:53:48;11.57;;;9.10;;
11141;SDS011;5625;50.122;19.864;2024-02-23T10:56:19;10.57;;;9.07;;
11141;SDS011;5625;50.122;19.864;2024-02-23T10:58:48;10.63;;;9.53;;
11141;SDS011;5625;50.122;19.864;2024-02-23T11:01:16;11.13;;;9.50;;
11141;SDS011;5625;50.122;19.864;2024-02-23T11:03:47;10.90;;;8.73;;
11141;SDS011;5625;50.122;19.864;2024-02-23T11:06:17;8.77;;;7.97;;
11141;SDS011;5625;50.122;19.864;2024-02-23T11:08:49;10.70;;;8.63;;
11141;SDS011;5625;50.122;19.864;2024-02-23T11:11:19;9.70;;;8.30;;
11141;SDS011;5625;50.122;19.864;2024-02-23T11:13:47;10.43;;;8.90;;
11141;SDS011;5625;50.122;19.864;2024-02-23T11:16:21;10.40;;;7.80;;
11141;SDS011;5625;50.122;19.864;2024-02-23T11:18:50;9.80;;;7.83;;
11141;SDS011;5625;50.122;19.864;2024-02-23T11:21:33;7.17;;;6.37;;
11141;SDS011;5625;50.122;19.864;2024-02-23T11:24:05;7.80;;;6.97;;
11141;SDS011;5625;50.122;19.864;2024-02-23T11:26:36;7.67;;;6.73;;
11141;SDS011;5625;50.122;19.864;2024-02-23T11:29:09;8.27;;;7.40;;
11141;SDS011;5625;50.122;19.864;2024-02-23T11:31:44;9.37;;;8.10;;
11141;SDS011;5625;50.122;19.864;2024-02-23T11:34:13;8.43;;;7.60;;
11141;SDS011;5625;50.122;19.864;2024-02-23T11:36:50;9.33;;;7.40;;
11141;SDS011;5625;50.122;19.864;2024-02-23T11:39:20;8.87;;;7.97;;
11141;SDS011;5625;50.122;19.864;2024-02-23T11:41:49;7.97;;;7.17;;
11141;SDS011;5625;50.122;19.864;2024-02-23T11:44:18;9.73;;;7.40;;
11141;SDS011;5625;50.122;19.864;2024-02-23T11:46:46;7.63;;;6.83;;
11141;SDS011;5625;50.122;19.864;2024-02-23T11:49:15;7.97;;;6.83;;
11141;SDS011;5625;50.122;19.864;2024-02-23T11:51:43;7.60;;;6.80;;
11141;SDS011;5625;50.122;19.864;2024-02-23T11:54:12;7.73;;;6.70;;
11141;SDS011;5625;50.122;19.864;2024-02-23T11:56:41;7.83;;;6.70;;
11141;SDS011;5625;50.122;19.864;2024-02-23T11:59:12;7.97;;;6.77;;
11141;SDS011;5625;50.122;19.864;2024-02-23T12:01:49;7.77;;;6.10;;
11141;SDS011;5625;50.122;19.864;2024-02-23T12:04:19;8.37;;;6.63;;
11141;SDS011;5625;50.122;19.864;2024-02-23T12:06:47;5.97;;;5.37;;
11141;SDS011;5625;50.122;19.864;2024-02-23T12:09:28;5.83;;;5.13;;
11141;SDS011;5625;50.122;19.864;2024-02-23T12:11:58;5.90;;;4.93;;
11141;SDS011;5625;50.122;19.864;2024-02-23T12:14:27;6.37;;;5.77;;
11141;SDS011;5625;50.122;19.864;2024-02-23T12:16:57;6.37;;;5.47;;
11141;SDS011;5625;50.122;19.864;2024-02-23T12:19:25;6.60;;;5.03;;
11141;SDS011;5625;50.122;19.864;2024-02-23T12:21:53;7.13;;;5.37;;
11141;SDS011;5625;50.122;19.864;2024-02-23T12:24:43;6.37;;;5.67;;
11141;SDS011;5625;50.122;19.864;2024-02-23T12:27:19;6.97;;;5.10;;
11141;SDS011;5625;50.122;19.864;2024-02-23T12:29:52;7.53;;;5.40;;
11141;SDS011;5625;50.122;19.864;2024-02-23T12:32:21;6.70;;;6.03;;
11141;SDS011;5625;50.122;19.864;2024-02-23T12:34:49;6.30;;;5.07;;
11141;SDS011;5625;50.122;19.864;2024-02-23T12:37:17;6.20;;;4.87;;
11141;SDS011;5625;50.122;19.864;2024-02-23T12:39:50;5.63;;;5.03;;
11141;SDS011;5625;50.122;19.864;2024-02-23T12:42:37;6.63;;;5.03;;
11141;SDS011;5625;50.122;19.864;2024-02-23T12:45:10;5.17;;;4.63;;
11141;SDS011;5625;50.122;19.864;2024-02-23T12:48:01;5.70;;;4.50;;
11141;SDS011;5625;50.122;19.864;2024-02-23T12:50:38;5.47;;;4.67;;
11141;SDS011;5625;50.122;19.864;2024-02-23T12:53:06;6.00;;;4.70;;
11141;SDS011;5625;50.122;19.864;2024-02-23T12:56:03;4.57;;;4.13;;
11141;SDS011;5625;50.122;19.864;2024-02-23T12:58:45;4.67;;;4.27;;
11141;SDS011;5625;50.122;19.864;2024-02-23T13:01:34;4.73;;;4.10;;
11141;SDS011;5625;50.122;19.864;2024-02-23T13:04:07;6.10;;;4.20;;
11141;SDS011;5625;50.122;19.864;2024-02-23T13:06:43;4.70;;;3.80;;
11141;SDS011;5625;50.122;19.864;2024-02-23T13:09:11;5.37;;;3.60;;
11141;SDS011;5625;50.122;19.864;2024-02-23T13:11:48;4.03;;;3.30;;
11141;SDS011;5625;50.122;19.864;2024-02-23T13:14:35;4.83;;;4.33;;
11141;SDS011;5625;50.122;19.864;2024-02-23T13:17:04;5.43;;;4.30;;
11141;SDS011;5625;50.122;19.864;2024-02-23T13:19:37;4.20;;;3.80;;
11141;SDS011;5625;50.122;19.864;2024-02-23T13:22:08;3.90;;;3.53;;
11141;SDS011;5625;50.122;19.864;2024-02-23T13:24:36;4.33;;;3.93;;
11141;SDS011;5625;50.122;19.864;2024-02-23T13:27:13;4.10;;;3.67;;
11141;SDS011;5625;50.122;19.864;2024-02-23T13:29:51;4.30;;;3.90;;
11141;SDS011;5625;50.122;19.864;2024-02-23T13:32:19;4.47;;;4.07;;
11141;SDS011;5625;50.122;19.864;2024-02-23T13:34:50;3.97;;;3.67;;
11141;SDS011;5625;50.122;19.864;2024-02-23T13:37:19;4.97;;;4.33;;
11141;SDS011;5625;50.122;19.864;2024-02-23T13:39:47;4.73;;;4.13;;
11141;SDS011;5625;50.122;19.864;2024-02-23T13:42:21;4.50;;;4.10;;
11141;SDS011;5625;50.122;19.864;2024-02-23T13:44:56;4.27;;;3.87;;
11141;SDS011;5625;50.122;19.864;2024-02-23T13:47:26;5.47;;;3.90;;
11141;SDS011;5625;50.122;19.864;2024-02-23T13:49:55;3.97;;;3.67;;
11141;SDS011;5625;50.122;19.864;2024-02-23T13:52:23;7.43;;;5.03;;
11141;SDS011;5625;50.122;19.864;2024-02-23T13:54:54;5.47;;;4.73;;
11141;SDS011;5625;50.122;19.864;2024-02-23T13:57:22;4.70;;;4.30;;
11141;SDS011;5625;50.122;19.864;2024-02-23T13:59:51;4.93;;;4.43;;
11141;SDS011;5625;50.122;19.864;2024-02-23T14:02:24;5.03;;;4.53;;
11141;SDS011;5625;50.122;19.864;2024-02-23T14:04:59;5.53;;;5.03;;
11141;SDS011;5625;50.122;19.864;2024-02-23T14:07:29;6.50;;;5.80;;
11141;SDS011;5625;50.122;19.864;2024-02-23T14:09:58;6.27;;;5.67;;
11141;SDS011;5625;50.122;19.864;2024-02-23T14:12:26;6.17;;;5.37;;
11141;SDS011;5625;50.122;19.864;2024-02-23T14:14:54;6.87;;;5.73;;
11141;SDS011;5625;50.122;19.864;2024-02-23T14:17:24;6.03;;;4.80;;
11141;SDS011;5625;50.122;19.864;2024-02-23T14:19:52;5.90;;;5.30;;
11141;SDS011;5625;50.122;19.864;2024-02-23T14:22:21;4.70;;;4.27;;
11141;SDS011;5625;50.122;19.864;2024-02-23T14:24:51;5.37;;;4.50;;
11141;SDS011;5625;50.122;19.864;2024-02-23T14:27:19;5.00;;;4.50;;
11141;SDS011;5625;50.122;19.864;2024-02-23T14:29:48;5.47;;;4.77;;
11141;SDS011;5625;50.122;19.864;2024-02-23T14:32:16;5.30;;;4.77;;
11141;SDS011;5625;50.122;19.864;2024-02-23T14:34:47;5.87;;;5.27;;
11141;SDS011;5625;50.122;19.864;2024-02-23T14:37:16;5.80;;;4.60;;
11141;SDS011;5625;50.122;19.864;2024-02-23T14:39:44;6.53;;;5.63;;
11141;SDS011;5625;50.122;19.864;2024-02-23T14:42:13;7.63;;;6.33;;
11141;SDS011;5625;50.122;19.864;2024-02-23T14:44:42;10.17;;;8.10;;
11141;SDS011;5625;50.122;19.864;2024-02-23T14:47:10;8.80;;;7.73;;
11141;SDS011;5625;50.122;19.864;2024-02-23T14:49:39;9.73;;;8.30;;
11141;SDS011;5625;50.122;19.864;2024-02-23T14:52:08;9.80;;;8.53;;
11141;SDS011;5625;50.122;19.864;2024-02-23T14:54:36;11.97;;;9.90;;
11141;SDS011;5625;50.122;19.864;2024-02-23T14:57:05;12.43;;;10.43;;
11141;SDS011;5625;50.122;19.864;2024-02-23T14:59:34;11.97;;;10.00;;
11141;SDS011;5625;50.122;19.864;2024-02-23T15:02:02;10.90;;;9.80;;